​ ​

Форум клана ЧПУшников

Информация о пользователе

Привет, Гость! Войдите или зарегистрируйтесь.


Вы здесь » Форум клана ЧПУшников » Лазерные станки


Лазерные станки

Тем 1 страница 80 из 663

Тема Ответов Просмотров Последнее сообщение
1 Важно: Подскажите новичку 4  Kula  [ 1 2 3  9 ]
835 21952 16-03-2022 14:39:20  Dachnik
2 Важно: Фото готовых работ выполненных на лазере 2  Администратор  [ 1 2 3  10 ]
913 72733 12-12-2021 13:05:17  Спартак
172 11334 22-06-2020 15:49:13  Vera
643 30123 24-05-2022 22:29:57  Хуарес
4 262 24-05-2022 00:48:23  xodok7612w
256 38280 20-05-2022 07:40:15  ИгорьМ
2 31 19-05-2022 14:55:21  Lev Oni
1 366 30-04-2022 10:30:45  Холик
0 26 22-04-2022 15:30:46  Erectly
4 87 15-04-2022 21:39:14  stapelmoor
0 19 13-04-2022 12:55:54  Pacific532654
12 AutoLaser и TL-403CB  SmileCat  [ 1 2 ]
177 7353 12-04-2022 21:58:34  maxbel
2 48 10-04-2022 23:22:35  Алексей Антонов
31 1122 16-03-2022 17:06:09  Dachnik
11 1590 14-03-2022 20:09:33  Vertlkal
16 Чиллер  Timoha55  [ 1 2 3 4 5 ]
498 19291 08-03-2022 12:26:28  в этом деле
1 63 25-02-2022 08:15:33  Alex_Asutp
18 CorelDraw  Vladimir821  [ 1 2 ]
165 9428 21-02-2022 15:21:37  SantaCom
8 158 21-02-2022 13:22:55  Dobroff
62 3243 12-02-2022 09:29:28  vasa29
21 ortur laser master2-20w  Александр Сихаев
8 587 05-02-2022 17:41:56  Василий12
22 руида 6442  ilya37rus
3 197 26-01-2022 17:55:16  mitskevich
2 56 20-01-2022 22:19:42  igordad
0 48 14-01-2022 17:39:23  MuForum
0 108 13-01-2022 14:41:57  MuForum
3 77 07-01-2022 14:47:55  vasa29
1 113 24-12-2021 01:37:21  АХА
17 888 20-12-2021 15:47:09  Jek44
0 45 16-12-2021 22:15:51  OlexandrM
2 81 12-12-2021 12:54:55  MuForum
99 6022 10-12-2021 09:36:03  Dinex
22 1506 09-12-2021 15:12:51  Алекс123665778
1 101 08-12-2021 17:36:42  shatrovmaxim
0 28 07-12-2021 17:40:35  MuForum
77 2729 07-12-2021 07:07:41  Dark Knight
5 218 02-12-2021 13:51:41  Sanana
202 9616 01-12-2021 17:45:26  Владимир syv
22 204 25-11-2021 12:31:30  Jeka One
96 15351 22-11-2021 05:56:26  Timoha55
5 173 21-11-2021 15:47:06  Triada
3 107 20-11-2021 16:34:25  appo
1 98 17-11-2021 15:08:58  Jeka One
193 6756 10-11-2021 14:22:23  inestigator
1 42 21-10-2021 20:23:27  Jeka One
45 выбор компрессора  ecto  [ 1 2 3 4 ]
377 17755 12-10-2021 04:21:10  МОДУЛЬНАЯ ФИЛЬТР-ГРУППА Д
2 166 08-10-2021 09:52:15  Сергей инженер-наладчик
28 1187 22-09-2021 08:45:00  Karbofos
26 1960 21-09-2021 15:54:53  Karbofos
24 509 30-08-2021 17:31:26  BlackOx
4 102 30-08-2021 13:11:33  TATAPNH
15 338 28-07-2021 14:15:30  Valera5609
2 150 21-07-2021 17:27:24  maks11
1 115 17-07-2021 12:57:11  Valera5609
4 937 14-07-2021 07:18:08  Вассс
4 213 04-06-2021 15:09:22  AndreyV
1 121 25-05-2021 19:00:36  Valera5609
0 128 10-05-2021 08:37:38  Sanana
24 10863 26-04-2021 12:47:19  brainmo
107 8309 21-04-2021 11:09:49  Siga
39 3805 20-04-2021 21:08:30  Valera5609
239 27841 19-04-2021 10:20:09  Kinetic
3 165 15-04-2021 12:48:55  су-24
348 41557 10-04-2021 19:39:34  Jek44
6 220 02-04-2021 15:14:00  Valera5609
65 LaserCAD  Valentin25
10 766 01-04-2021 16:02:13  Сергей Одесса
66 Нужна помощь специалистов!  Мастер на все руки
31 1750 29-03-2021 12:18:15  Владимирская?
1 104 24-03-2021 21:35:31  SNS
1 123 24-03-2021 16:56:07  Radiovolna
0 118 23-03-2021 13:17:34  headbI4
0 154 21-03-2021 13:18:28  headbI4
143 18268 16-03-2021 16:57:36  Valera5609
12 460 15-03-2021 23:02:45  ЮгРФ
0 189 15-03-2021 19:40:08  lazukin vlad
1 82 14-03-2021 20:10:46  3aBp
3 112 10-03-2021 20:42:04  Valera5609
3 221 07-03-2021 22:42:59  Valera5609
349 23168 06-03-2021 02:16:05  CNCshnick
15 230 28-02-2021 05:46:23  Dark Knight
2 101 25-02-2021 23:08:23  комса45
0 103 25-02-2021 13:02:09  meglauk

Вы здесь » Форум клана ЧПУшников » Лазерные станки